TXKF/BDA METAR and TAF weather

Enter ICAO airport designator
Station Type Date Time Source
TXKF METAR 2020/10/29 16:55 UTC NOAA

TXKF 291655Z 21010KT 9999 VCSH SCT019 BKN046 BKN300 25/22 Q1018


Station Type Date Time Source
TXKF Decoded METAR 2020/10/29 16:55 UTC NOAA

Bermuda, Bermuda (TXKF) 32-22N 064-41W
Oct 29, 2020 - 12:55 PM EDT / 2020.10.29 1655 UTC
Wind: from the SSW (210 degrees) at 12 MPH (10 KT):0
Visibility: greater than 7 mile(s):0
Sky conditions: mostly cloudy
Weather: showers in the vicinity
Temperature: 77 F (25 C)
Dew Point: 71 F (22 C)
Relative Humidity: 83%
Pressure (altimeter): 30.06 in. Hg (1018 hPa)
ob: TXKF 291655Z 21010KT 9999 VCSH SCT019 BKN046 BKN300 25/22 Q1018
cycle: 17

Station Type Date Time Source
TXKF TAF 2020/10/29 18:39 UTC NOAA

TAF TXKF 291732Z 2918/3018 24010KT 9999 VCSH FEW017 SCT045 BKN300 PROB30
TEMPO 2918/3018 22015KT 6000 -SHRA BKN014 OVC045

Example: see airport list